sensor_id;sensor_type;location;lat;lon;timestamp;pressure;altitude;pressure_sealevel;temperature;humidity
26178;BME280;13924;47.670;10.310;2023-06-04T00:00:46;93150;;;18.0;100.0
26178;BME280;13924;47.670;10.310;2023-06-04T00:15:44;93160;;;15.9;100.0
26178;BME280;13924;47.670;10.310;2023-06-04T00:30:45;93160;;;15.4;100.0
26178;BME280;13924;47.670;10.310;2023-06-04T00:45:44;93190;;;15.2;100.0
26178;BME280;13924;47.670;10.310;2023-06-04T01:00:51;93180;;;15.0;100.0
26178;BME280;13924;47.670;10.310;2023-06-04T01:01:33;93180;;;15.0;100.0
26178;BME280;13924;47.670;10.310;2023-06-04T01:15:48;93210;;;15.0;100.0
26178;BME280;13924;47.670;10.310;2023-06-04T01:30:50;93170;;;15.9;100.0
26178;BME280;13924;47.670;10.310;2023-06-04T01:45:50;93190;;;15.0;100.0
26178;BME280;13924;47.670;10.310;2023-06-04T02:00:51;93180;;;15.8;100.0
26178;BME280;13924;47.670;10.310;2023-06-04T02:15:50;93180;;;16.4;100.0
26178;BME280;13924;47.670;10.310;2023-06-04T02:30:52;93210;;;15.1;100.0
26178;BME280;13924;47.670;10.310;2023-06-04T02:45:50;93190;;;15.9;100.0
26178;BME280;13924;47.670;10.310;2023-06-04T03:00:53;93200;;;14.6;100.0
26178;BME280;13924;47.670;10.310;2023-06-04T03:12:22;93200;;;14.3;100.0
26178;BME280;13924;47.670;10.310;2023-06-04T03:27:23;93200;;;15.1;100.0
26178;BME280;13924;47.670;10.310;2023-06-04T03:42:22;93210;;;14.6;100.0
26178;BME280;13924;47.670;10.310;2023-06-04T03:57:23;93270;;;13.3;100.0
26178;BME280;13924;47.670;10.310;2023-06-04T04:12:24;93490;;;12.6;100.0
26178;BME280;13924;47.670;10.310;2023-06-04T04:27:24;93370;;;13.2;100.0
26178;BME280;13924;47.670;10.310;2023-06-04T04:42:25;93370;;;13.1;100.0
26178;BME280;13924;47.670;10.310;2023-06-04T04:57:27;93410;;;13.6;100.0
26178;BME280;13924;47.670;10.310;2023-06-04T05:12:30;93470;;;13.4;100.0
26178;BME280;13924;47.670;10.310;2023-06-04T05:27:27;93350;;;14.6;100.0
26178;BME280;13924;47.670;10.310;2023-06-04T05:42:28;93350;;;14.8;100.0
26178;BME280;13924;47.670;10.310;2023-06-04T05:57:29;93330;;;15.2;100.0
26178;BME280;13924;47.670;10.310;2023-06-04T06:12:30;93330;;;15.5;100.0
26178;BME280;13924;47.670;10.310;2023-06-04T06:27:30;93310;;;15.7;100.0
26178;BME280;13924;47.670;10.310;2023-06-04T06:42:32;93300;;;16.0;100.0
26178;BME280;13924;47.670;10.310;2023-06-04T06:57:33;93290;;;16.9;100.0
26178;BME280;13924;47.670;10.310;2023-06-04T07:12:32;93290;;;18.0;100.0
26178;BME280;13924;47.670;10.310;2023-06-04T07:27:33;93270;;;18.6;100.0
26178;BME280;13924;47.670;10.310;2023-06-04T07:42:34;93260;;;19.0;100.0
26178;BME280;13924;47.670;10.310;2023-06-04T07:57:39;93260;;;19.3;92.5
26178;BME280;13924;47.670;10.310;2023-06-04T08:12:34;93260;;;19.5;65.5
26178;BME280;13924;47.670;10.310;2023-06-04T08:27:37;93260;;;19.5;65.5
26178;BME280;13924;47.670;10.310;2023-06-04T08:42:41;93270;;;20.2;94.6
26178;BME280;13924;47.670;10.310;2023-06-04T08:57:38;93270;;;20.4;83.5
26178;BME280;13924;47.670;10.310;2023-06-04T09:12:42;93270;;;20.4;83.5
26178;BME280;13924;47.670;10.310;2023-06-04T09:27:40;93270;;;20.7;68.9
26178;BME280;13924;47.670;10.310;2023-06-04T09:42:43;93270;;;21.4;66.0
26178;BME280;13924;47.670;10.310;2023-06-04T09:57:39;93270;;;21.9;68.8
26178;BME280;13924;47.670;10.310;2023-06-04T10:12:41;93260;;;22.3;69.9
26178;BME280;13924;47.670;10.310;2023-06-04T10:27:42;93270;;;22.6;60.1
26178;BME280;13924;47.670;10.310;2023-06-04T10:42:42;93260;;;23.1;65.7
26178;BME280;13924;47.670;10.310;2023-06-04T10:57:51;93260;;;24.2;49.1
26178;BME280;13924;47.670;10.310;2023-06-04T11:12:44;93260;;;24.2;54.3
26178;BME280;13924;47.670;10.310;2023-06-04T11:27:44;93250;;;24.5;43.9
26178;BME280;13924;47.670;10.310;2023-06-04T11:42:44;93250;;;25.0;44.7
26178;BME280;13924;47.670;10.310;2023-06-04T11:57:45;93260;;;24.7;45.7
26178;BME280;13924;47.670;10.310;2023-06-04T12:12:46;93240;;;24.9;43.1
26178;BME280;13924;47.670;10.310;2023-06-04T12:27:47;93250;;;24.2;46.8
26178;BME280;13924;47.670;10.310;2023-06-04T12:42:49;93240;;;24.3;45.4
26178;BME280;13924;47.670;10.310;2023-06-04T12:57:50;93240;;;24.3;45.4
26178;BME280;13924;47.670;10.310;2023-06-04T13:12:48;93250;;;23.8;46.4
26178;BME280;13924;47.670;10.310;2023-06-04T13:27:49;93250;;;23.8;46.4
26178;BME280;13924;47.670;10.310;2023-06-04T13:42:49;93260;;;23.4;47.4
26178;BME280;13924;47.670;10.310;2023-06-04T13:57:50;93270;;;23.0;49.5
26178;BME280;13924;47.670;10.310;2023-06-04T14:12:57;93270;;;23.0;49.5
26178;BME280;13924;47.670;10.310;2023-06-04T14:27:52;93280;;;22.8;54.1
26178;BME280;13924;47.670;10.310;2023-06-04T14:42:59;93280;;;22.5;51.5
26178;BME280;13924;47.670;10.310;2023-06-04T14:57:53;93260;;;22.5;56.6
26178;BME280;13924;47.670;10.310;2023-06-04T15:12:54;93260;;;22.4;56.9
26178;BME280;13924;47.670;10.310;2023-06-04T15:27:56;93260;;;22.4;56.9
26178;BME280;13924;47.670;10.310;2023-06-04T15:42:57;93260;;;22.3;58.1
26178;BME280;13924;47.670;10.310;2023-06-04T15:57:55;93250;;;21.7;59.8
26178;BME280;13924;47.670;10.310;2023-06-04T16:12:57;93230;;;22.0;62.1
26178;BME280;13924;47.670;10.310;2023-06-04T16:27:56;93230;;;21.9;56.7
26178;BME280;13924;47.670;10.310;2023-06-04T16:42:58;93220;;;21.7;61.2
26178;BME280;13924;47.670;10.310;2023-06-04T16:57:57;93230;;;21.3;58.9
26178;BME280;13924;47.670;10.310;2023-06-04T17:13:02;93230;;;21.3;58.9
26178;BME280;13924;47.670;10.310;2023-06-04T17:27:59;93230;;;21.2;70.0
26178;BME280;13924;47.670;10.310;2023-06-04T17:42:59;93240;;;21.0;71.8
26178;BME280;13924;47.670;10.310;2023-06-04T17:58:01;93240;;;21.3;76.6
26178;BME280;13924;47.670;10.310;2023-06-04T18:13:00;93230;;;21.1;68.3
26178;BME280;13924;47.670;10.310;2023-06-04T18:28:01;93220;;;21.0;74.0
26178;BME280;13924;47.670;10.310;2023-06-04T18:43:03;93250;;;20.8;70.1
26178;BME280;13924;47.670;10.310;2023-06-04T18:58:03;93230;;;20.4;75.6
26178;BME280;13924;47.670;10.310;2023-06-04T19:13:06;93230;;;20.4;75.6
26178;BME280;13924;47.670;10.310;2023-06-04T19:28:04;93260;;;20.2;89.8
26178;BME280;13924;47.670;10.310;2023-06-04T19:43:04;93270;;;20.2;92.5
26178;BME280;13924;47.670;10.310;2023-06-04T19:58:07;93270;;;20.2;92.5
26178;BME280;13924;47.670;10.310;2023-06-04T20:13:06;93280;;;19.9;100.0
26178;BME280;13924;47.670;10.310;2023-06-04T20:28:10;93300;;;19.9;100.0
26178;BME280;13924;47.670;10.310;2023-06-04T20:43:08;93280;;;19.9;100.0
26178;BME280;13924;47.670;10.310;2023-06-04T20:58:07;93280;;;19.8;100.0
26178;BME280;13924;47.670;10.310;2023-06-04T21:13:08;93280;;;19.7;100.0
26178;BME280;13924;47.670;10.310;2023-06-04T21:28:08;93280;;;19.7;100.0
26178;BME280;13924;47.670;10.310;2023-06-04T21:43:09;93280;;;19.4;99.4
26178;BME280;13924;47.670;10.310;2023-06-04T21:58:09;93270;;;19.4;99.2
26178;BME280;13924;47.670;10.310;2023-06-04T22:00:36;93270;;;19.4;98.7
26178;BME280;13924;47.670;10.310;2023-06-04T22:15:37;93270;;;19.1;100.0
26178;BME280;13924;47.670;10.310;2023-06-04T22:30:39;93270;;;19.1;100.0
26178;BME280;13924;47.670;10.310;2023-06-04T22:45:38;93270;;;19.3;100.0
26178;BME280;13924;47.670;10.310;2023-06-04T23:00:39;93270;;;19.2;100.0
26178;BME280;13924;47.670;10.310;2023-06-04T23:15:39;93260;;;18.4;100.0
26178;BME280;13924;47.670;10.310;2023-06-04T23:30:40;93250;;;18.0;100.0
26178;BME280;13924;47.670;10.310;2023-06-04T23:45:42;93250;;;17.8;100.0
